Time;durP1;ratioP1;P1;durP2;ratioP2;P2;SDS_P1;SDS_P2;PMS_P1;PMS_P2;Temp;Humidity;BMP_temperature;BMP_pressure;BME280_temperature;BME280_humidity;BME280_pressure;Samples;Min_cycle;Max_cycle;Signal;HPM_P1;HPM_P2
2023/02/13 00:01:15;;;;;;;0.60;0.60;;;1.80;99.90;;;;;;5073715;28;20928;-83
2023/02/13 00:03:42;;;;;;;0.50;0.40;;;1.80;99.90;;;;;;5073249;28;20487;-83
2023/02/13 00:06:09;;;;;;;6.73;0.90;;;1.70;99.90;;;;;;5073434;28;20836;-83
2023/02/13 00:08:36;;;;;;;2.90;1.80;;;1.70;99.90;;;;;;5073560;28;20442;-83
2023/02/13 00:11:04;;;;;;;0.40;0.40;;;1.70;99.90;;;;;;5073533;28;20788;-83
2023/02/13 00:13:31;;;;;;;0.30;0.30;;;1.80;99.90;;;;;;5073450;28;20448;-83
2023/02/13 00:15:59;;;;;;;0.50;0.30;;;1.70;99.90;;;;;;5073400;28;20912;-83
2023/02/13 00:18:26;;;;;;;1.13;1.03;;;1.70;99.90;;;;;;5073386;28;20461;-83
2023/02/13 00:21:01;;;;;;;0.93;0.50;;;1.60;99.90;;;;;;5073317;28;20453;-83
2023/02/13 00:23:29;;;;;;;1.50;1.20;;;1.60;99.90;;;;;;5073320;28;20492;-83
2023/02/13 00:25:56;;;;;;;0.70;0.70;;;1.50;99.90;;;;;;5073269;28;20548;-83
2023/02/13 00:28:25;;;;;;;0.40;0.40;;;1.50;99.90;;;;;;5073350;28;20446;-83
2023/02/13 00:30:52;;;;;;;4.10;1.20;;;1.50;99.90;;;;;;5073322;28;20446;-83
2023/02/13 00:33:18;;;;;;;0.50;0.50;;;1.50;99.90;;;;;;5073298;28;20442;-83
2023/02/13 00:35:45;;;;;;;0.40;0.40;;;1.50;99.90;;;;;;5072819;28;20477;-83
2023/02/13 00:38:12;;;;;;;0.50;0.50;;;1.40;99.90;;;;;;5073242;28;20452;-83
2023/02/13 00:40:39;;;;;;;0.30;0.30;;;1.40;99.90;;;;;;5072899;28;20471;-83
2023/02/13 00:43:05;;;;;;;0.57;0.53;;;1.40;99.90;;;;;;5073130;28;20452;-83
2023/02/13 00:45:34;;;;;;;0.70;0.50;;;1.40;99.90;;;;;;5073116;28;20453;-83
2023/02/13 00:48:01;;;;;;;0.87;0.60;;;1.40;99.90;;;;;;5072733;28;20454;-83
2023/02/13 00:50:27;;;;;;;0.40;0.40;;;1.30;99.90;;;;;;5073219;28;20821;-83
2023/02/13 00:52:54;;;;;;;2.83;0.80;;;1.40;99.90;;;;;;5073090;28;20445;-83
2023/02/13 00:55:21;;;;;;;0.37;0.37;;;1.40;99.90;;;;;;5073913;28;20452;-83
2023/02/13 00:57:47;;;;;;;0.50;0.50;;;1.40;99.90;;;;;;5072952;28;20473;-83
2023/02/13 01:00:16;;;;;;;0.70;0.60;;;1.40;99.90;;;;;;5073005;28;20449;-83
2023/02/13 01:02:44;;;;;;;0.50;0.50;;;1.40;99.90;;;;;;5072966;28;20408;-83
2023/02/13 01:05:10;;;;;;;0.60;0.53;;;1.30;99.90;;;;;;5072921;28;20486;-83
2023/02/13 01:07:37;;;;;;;1.90;0.60;;;1.30;99.90;;;;;;5073076;28;20492;-83
2023/02/13 01:10:04;;;;;;;1.30;0.73;;;1.30;99.90;;;;;;5076477;28;20826;-83
2023/02/13 01:12:31;;;;;;;0.77;0.77;;;1.30;99.90;;;;;;5076756;28;20446;-82
2023/02/13 01:14:58;;;;;;;1.70;0.97;;;1.30;99.90;;;;;;5076676;28;20446;-83
2023/02/13 01:17:24;;;;;;;0.70;0.70;;;1.30;99.90;;;;;;5076223;28;20469;-83
2023/02/13 01:19:53;;;;;;;0.30;0.30;;;1.20;99.90;;;;;;5076538;28;20453;-83
2023/02/13 01:22:19;;;;;;;1.50;1.10;;;1.30;99.90;;;;;;5076513;28;20456;-83
2023/02/13 01:24:46;;;;;;;0.40;0.40;;;1.30;99.90;;;;;;5076424;28;20480;-83
2023/02/13 01:27:13;;;;;;;0.50;0.50;;;1.30;99.90;;;;;;5076400;28;20473;-83
2023/02/13 01:29:39;;;;;;;1.00;1.00;;;1.40;99.90;;;;;;5076093;28;20429;-83
2023/02/13 01:32:06;;;;;;;2.90;0.50;;;1.50;99.90;;;;;;5076340;28;20449;-83
2023/02/13 01:34:34;;;;;;;0.40;0.40;;;1.50;99.90;;;;;;5076359;28;20444;-83
2023/02/13 01:37:02;;;;;;;0.30;0.30;;;1.50;99.90;;;;;;5075721;28;20484;-83
2023/02/13 01:39:28;;;;;;;2.00;1.27;;;1.50;99.90;;;;;;5076220;28;20452;-83
2023/02/13 01:41:55;;;;;;;1.30;1.30;;;1.40;99.90;;;;;;5076126;28;20445;-83
2023/02/13 01:44:45;;;;;;;0.40;0.40;;;1.30;99.90;;;;;;5076026;28;20485;-83
2023/02/13 01:47:14;;;;;;;0.40;0.40;;;1.30;99.90;;;;;;5075973;28;20484;-83
2023/02/13 01:49:43;;;;;;;1.23;1.23;;;1.20;99.90;;;;;;5076159;28;20418;-83
2023/02/13 01:52:13;;;;;;;0.73;0.73;;;1.20;99.90;;;;;;5075731;28;20446;-83
2023/02/13 01:54:40;;;;;;;0.30;0.30;;;1.20;99.90;;;;;;5075965;28;20441;-83
2023/02/13 01:57:10;;;;;;;0.57;0.57;;;1.20;99.90;;;;;;5075905;28;20841;-83
2023/02/13 01:59:43;;;;;;;0.63;0.63;;;1.20;99.90;;;;;;5075828;28;20446;-83
2023/02/13 02:02:10;;;;;;;0.60;0.37;;;1.20;99.90;;;;;;5075855;28;20429;-83
2023/02/13 02:04:39;;;;;;;0.93;0.50;;;1.20;99.90;;;;;;5075719;28;20485;-83
2023/02/13 02:07:14;;;;;;;0.50;0.50;;;1.20;99.90;;;;;;5075673;28;20458;-83
2023/02/13 02:09:42;;;;;;;0.50;0.50;;;1.20;99.90;;;;;;5075688;28;20438;-82
2023/02/13 02:12:13;;;;;;;0.60;0.50;;;1.10;99.90;;;;;;5075595;28;20446;-82
2023/02/13 02:14:42;;;;;;;0.90;0.63;;;1.10;99.90;;;;;;5075566;28;20437;-82
2023/02/13 02:17:09;;;;;;;2.97;1.17;;;1.10;99.90;;;;;;5075662;28;20469;-81
2023/02/13 02:19:48;;;;;;;0.40;0.40;;;1.10;99.90;;;;;;5075129;28;20441;-81
2023/02/13 02:22:54;;;;;;;3.00;1.03;;;1.10;99.90;;;;;;5075490;28;20791;-81
2023/02/13 02:25:49;;;;;;;2.57;2.37;;;1.10;99.90;;;;;;5075240;28;20850;-82
2023/02/13 02:28:53;;;;;;;0.40;0.40;;;1.20;99.90;;;;;;5074953;28;20945;-82
2023/02/13 02:31:45;;;;;;;2.00;0.83;;;1.10;99.90;;;;;;5075286;28;20434;-82
2023/02/13 02:34:22;;;;;;;1.30;1.30;;;1.10;99.90;;;;;;5074922;28;20928;-82
2023/02/13 02:37:05;;;;;;;1.23;0.90;;;1.00;99.90;;;;;;5074690;28;20492;-82
2023/02/13 02:39:38;;;;;;;0.63;0.50;;;1.00;99.90;;;;;;5075064;28;20433;-82
2023/02/13 02:42:18;;;;;;;0.50;0.50;;;1.00;99.90;;;;;;5074771;28;20442;-82
2023/02/13 02:44:54;;;;;;;0.60;0.47;;;0.90;99.90;;;;;;5074983;28;20571;-82
2023/02/13 02:50:34;;;;;;;0.40;0.40;;;0.90;99.90;;;;;;5074934;28;20410;-82
2023/02/13 02:53:18;;;;;;;0.47;0.47;;;0.90;99.90;;;;;;5070849;28;20445;-82
2023/02/13 02:55:52;;;;;;;5.50;1.13;;;0.80;99.90;;;;;;5074702;28;20417;-82
2023/02/13 03:06:48;;;;;;;0.40;0.40;;;0.70;99.90;;;;;;5074340;28;20528;-82
2023/02/13 03:15:05;;;;;;;0.53;0.53;;;0.60;99.90;;;;;;5032619;28;20438;-82
2023/02/13 03:23:15;;;;;;;0.90;0.50;;;0.60;99.90;;;;;;5074258;28;20896;-82
2023/02/13 03:25:59;;;;;;;1.63;0.57;;;0.60;99.90;;;;;;5073990;28;20474;-82
2023/02/13 03:31:28;;;;;;;0.30;0.30;;;0.60;99.90;;;;;;5073424;28;20490;-82
2023/02/13 03:33:59;;;;;;;1.27;1.17;;;0.70;99.90;;;;;;5074130;28;20429;-82
2023/02/13 03:39:23;;;;;;;0.60;0.50;;;0.70;99.90;;;;;;5073732;28;20462;-82
2023/02/13 03:41:57;;;;;;;0.80;0.80;;;0.70;99.90;;;;;;5074132;28;20432;-82
2023/02/13 03:44:28;;;;;;;0.70;0.70;;;0.70;99.90;;;;;;5073820;28;20469;-82
2023/02/13 03:46:59;;;;;;;0.40;0.40;;;0.70;99.90;;;;;;5073748;28;20468;-82
2023/02/13 03:52:19;;;;;;;1.13;0.50;;;0.60;99.90;;;;;;5073826;28;20401;-82
2023/02/13 04:00:25;;;;;;;0.60;0.60;;;0.60;99.90;;;;;;5073658;28;20413;-82
2023/02/13 04:02:58;;;;;;;0.70;0.43;;;0.60;99.90;;;;;;5073530;28;20442;-82
2023/02/13 04:05:29;;;;;;;2.00;0.70;;;0.60;99.90;;;;;;5073496;28;20466;-81
2023/02/13 04:07:57;;;;;;;8.93;1.67;;;0.60;99.90;;;;;;5073501;28;20531;-81
2023/02/13 04:10:27;;;;;;;0.30;0.30;;;0.60;99.90;;;;;;5073476;28;20456;-85
2023/02/13 04:13:03;;;;;;;0.80;0.80;;;0.60;99.90;;;;;;5073822;28;20434;-85
2023/02/13 04:15:34;;;;;;;0.60;0.57;;;0.60;99.90;;;;;;5073786;28;20434;-85
2023/02/13 04:18:08;;;;;;;0.33;0.33;;;0.70;99.90;;;;;;5073826;28;20500;-85
2023/02/13 04:20:35;;;;;;;2.73;0.50;;;0.70;99.90;;;;;;5073651;28;20452;-85
2023/02/13 04:23:08;;;;;;;0.60;0.60;;;0.70;99.90;;;;;;5073239;28;20450;-84
2023/02/13 04:25:37;;;;;;;0.60;0.60;;;0.70;99.90;;;;;;5073656;28;20489;-85
2023/02/13 04:28:04;;;;;;;0.40;0.40;;;0.60;99.90;;;;;;5073251;28;20468;-85
2023/02/13 04:30:31;;;;;;;1.77;0.57;;;0.60;99.90;;;;;;5073610;28;20910;-85
2023/02/13 04:32:57;;;;;;;1.67;0.70;;;0.60;99.90;;;;;;5073343;28;20441;-85
2023/02/13 04:35:25;;;;;;;5.03;1.47;;;0.60;99.90;;;;;;5073500;28;20488;-85
2023/02/13 04:37:52;;;;;;;0.70;0.70;;;0.60;99.90;;;;;;5073475;28;20470;-85
2023/02/13 04:40:20;;;;;;;0.80;0.60;;;0.60;99.90;;;;;;5073465;28;20460;-85
2023/02/13 04:42:48;;;;;;;5.63;0.77;;;0.60;99.90;;;;;;5073777;28;20456;-85
2023/02/13 04:45:15;;;;;;;0.40;0.37;;;0.60;99.90;;;;;;5077522;28;20513;-85
2023/02/13 04:47:42;;;;;;;0.97;0.87;;;0.60;99.90;;;;;;5077431;28;20448;-85
2023/02/13 04:50:09;;;;;;;1.57;1.47;;;0.60;99.90;;;;;;5077457;28;20420;-85
2023/02/13 04:52:36;;;;;;;0.70;0.70;;;0.60;99.90;;;;;;5077580;28;20449;-85
2023/02/13 04:55:03;;;;;;;0.50;0.50;;;0.50;99.90;;;;;;5077431;28;20445;-85
2023/02/13 04:57:31;;;;;;;9.53;1.80;;;0.50;99.90;;;;;;5077358;28;20468;-85
2023/02/13 04:59:57;;;;;;;0.93;0.63;;;0.50;99.90;;;;;;5077491;28;20448;-85
2023/02/13 05:02:24;;;;;;;0.30;0.30;;;0.50;99.90;;;;;;5077235;28;20449;-85
2023/02/13 05:04:51;;;;;;;0.40;0.40;;;0.50;99.90;;;;;;5076946;28;20858;-85
2023/02/13 05:07:18;;;;;;;0.50;0.50;;;0.50;99.90;;;;;;5077045;28;20465;-85
2023/02/13 05:09:44;;;;;;;2.27;0.87;;;0.50;99.90;;;;;;5076730;28;20453;-84
2023/02/13 05:12:11;;;;;;;0.50;0.50;;;0.50;99.90;;;;;;5076835;28;20457;-85
2023/02/13 05:14:39;;;;;;;0.60;0.60;;;0.50;99.90;;;;;;5076873;28;20450;-84
2023/02/13 05:17:06;;;;;;;1.70;1.03;;;0.40;99.90;;;;;;5076874;28;20444;-84
2023/02/13 05:19:32;;;;;;;1.33;0.80;;;0.40;99.90;;;;;;5076861;28;20455;-84
2023/02/13 05:24:43;;;;;;;0.40;0.40;;;0.30;99.90;;;;;;5076444;28;20503;-84
2023/02/13 05:27:10;;;;;;;1.27;1.27;;;0.30;99.90;;;;;;5076392;28;20480;-84
2023/02/13 05:29:38;;;;;;;0.73;0.73;;;0.30;99.90;;;;;;5076689;28;20452;-84
2023/02/13 05:32:05;;;;;;;0.30;0.20;;;0.30;99.90;;;;;;5076350;28;20441;-84
2023/02/13 05:34:32;;;;;;;0.40;0.40;;;0.30;99.90;;;;;;5076359;28;20453;-84
2023/02/13 05:36:59;;;;;;;0.57;0.30;;;0.30;99.90;;;;;;5075071;28;20496;-84
2023/02/13 05:39:26;;;;;;;0.73;0.70;;;0.30;99.90;;;;;;5075191;28;20460;-84
2023/02/13 05:41:52;;;;;;;0.50;0.40;;;0.30;99.90;;;;;;5075289;28;20813;-84
2023/02/13 05:44:19;;;;;;;0.40;0.40;;;0.40;99.90;;;;;;5074978;28;20433;-84
2023/02/13 05:46:48;;;;;;;0.70;0.70;;;0.40;99.90;;;;;;5075034;28;20862;-84
2023/02/13 05:49:15;;;;;;;0.70;0.40;;;0.40;99.90;;;;;;5074828;28;20452;-84
2023/02/13 05:51:43;;;;;;;0.80;0.80;;;0.40;99.90;;;;;;5074969;28;20454;-84
2023/02/13 05:54:09;;;;;;;0.87;0.87;;;0.30;99.90;;;;;;5074699;28;20452;-84
2023/02/13 05:56:36;;;;;;;0.40;0.40;;;0.30;99.90;;;;;;5074880;28;20939;-84
2023/02/13 05:59:03;;;;;;;0.70;0.70;;;0.30;99.90;;;;;;5075005;28;20445;-84
2023/02/13 06:01:30;;;;;;;0.30;0.20;;;0.30;99.90;;;;;;5075476;28;20445;-84
2023/02/13 06:03:58;;;;;;;1.00;0.63;;;0.30;99.90;;;;;;5074818;28;20809;-84
2023/02/13 06:06:25;;;;;;;0.30;0.30;;;0.20;99.90;;;;;;5074640;28;20884;-84
2023/02/13 06:08:52;;;;;;;1.30;0.50;;;0.20;99.90;;;;;;5074756;28;20865;-84
2023/02/13 06:11:19;;;;;;;0.80;0.80;;;0.20;99.90;;;;;;5074640;28;20450;-83
2023/02/13 06:13:46;;;;;;;0.40;0.40;;;0.30;99.90;;;;;;5074542;28;20453;-84
2023/02/13 06:16:13;;;;;;;0.30;0.20;;;0.30;99.90;;;;;;5074570;28;20973;-84
2023/02/13 06:18:40;;;;;;;0.60;0.60;;;0.30;99.90;;;;;;5074646;28;20449;-84
2023/02/13 06:21:08;;;;;;;1.43;0.40;;;0.30;99.90;;;;;;5074543;28;20929;-84
2023/02/13 06:23:35;;;;;;;0.30;0.30;;;0.30;99.90;;;;;;5074642;28;20449;-84
2023/02/13 06:26:03;;;;;;;0.70;0.70;;;0.30;99.90;;;;;;5074099;28;20496;-83
2023/02/13 06:28:30;;;;;;;1.53;0.77;;;0.30;99.90;;;;;;5075107;28;20453;-84
2023/02/13 06:30:56;;;;;;;1.50;0.97;;;0.20;99.90;;;;;;5074119;28;20967;-84
2023/02/13 06:33:23;;;;;;;0.30;0.30;;;0.20;99.90;;;;;;5074098;28;20434;-84
2023/02/13 06:35:50;;;;;;;0.30;0.20;;;0.20;99.90;;;;;;5037766;28;1042007;-83
2023/02/13 06:38:18;;;;;;;0.87;0.87;;;0.20;99.90;;;;;;5075270;28;20199;-84
2023/02/13 06:40:45;;;;;;;0.70;0.60;;;0.20;99.90;;;;;;5074855;28;20936;-84
2023/02/13 06:43:12;;;;;;;0.30;0.30;;;0.20;99.90;;;;;;5075113;28;20460;-84
2023/02/13 06:45:39;;;;;;;0.30;0.30;;;0.30;99.90;;;;;;5075050;28;20477;-84
2023/02/13 06:48:05;;;;;;;0.80;0.40;;;0.30;99.90;;;;;;5075005;28;20470;-84
2023/02/13 06:50:33;;;;;;;0.30;0.30;;;0.30;99.90;;;;;;5075061;28;20445;-84
2023/02/13 06:53:01;;;;;;;1.90;0.57;;;0.30;99.90;;;;;;5074949;28;20556;-84
2023/02/13 06:55:29;;;;;;;0.40;0.37;;;0.40;99.90;;;;;;5074978;28;20801;-84
2023/02/13 06:57:57;;;;;;;7.10;0.90;;;0.30;99.90;;;;;;5074743;28;20469;-84
2023/02/13 07:00:25;;;;;;;1.07;0.70;;;0.40;99.90;;;;;;5074855;28;20442;-83
2023/02/13 07:02:52;;;;;;;0.50;0.50;;;0.40;99.90;;;;;;5074766;28;20521;-84
2023/02/13 07:05:20;;;;;;;1.63;1.07;;;0.40;99.90;;;;;;5074161;28;20469;-84
2023/02/13 07:07:46;;;;;;;1.03;0.97;;;0.50;99.90;;;;;;5075960;28;20981;-84
2023/02/13 07:10:14;;;;;;;2.10;0.90;;;0.50;99.90;;;;;;5074863;28;20437;-84
2023/02/13 07:12:43;;;;;;;1.90;0.40;;;0.60;99.90;;;;;;5074301;28;20813;-84
2023/02/13 07:15:11;;;;;;;0.50;0.50;;;0.70;99.90;;;;;;5074707;28;20431;-84
2023/02/13 07:17:37;;;;;;;3.80;0.70;;;0.70;99.90;;;;;;5074187;28;20995;-84
2023/02/13 07:20:05;;;;;;;0.40;0.40;;;0.80;99.90;;;;;;5075035;28;20803;-84
2023/02/13 07:22:32;;;;;;;0.63;0.60;;;0.80;99.90;;;;;;5074456;28;20460;-84
2023/02/13 07:24:59;;;;;;;1.33;0.70;;;0.90;99.90;;;;;;5074422;28;20915;-84
2023/02/13 07:27:28;;;;;;;1.70;0.60;;;1.00;99.90;;;;;;5074474;28;20524;-84
2023/02/13 07:29:57;;;;;;;1.13;0.50;;;1.00;99.90;;;;;;5074071;28;21031;-84
2023/02/13 07:32:24;;;;;;;1.60;0.90;;;1.10;99.90;;;;;;5074346;28;20453;-84
2023/02/13 07:34:51;;;;;;;1.50;0.63;;;1.10;99.90;;;;;;5074558;28;20441;-84
2023/02/13 07:37:18;;;;;;;0.50;0.47;;;1.10;99.90;;;;;;5074215;28;20830;-84
2023/02/13 07:39:44;;;;;;;0.70;0.70;;;1.20;99.90;;;;;;5074321;28;20449;-84
2023/02/13 07:42:11;;;;;;;0.80;0.40;;;1.20;99.90;;;;;;5074554;28;20449;-84
2023/02/13 07:44:38;;;;;;;0.93;0.83;;;1.20;99.90;;;;;;5074668;28;20450;-84
2023/02/13 07:47:06;;;;;;;0.73;0.73;;;1.20;99.90;;;;;;5074147;28;20485;-84
2023/02/13 07:49:33;;;;;;;0.87;0.87;;;1.30;99.90;;;;;;5074001;28;20445;-84
2023/02/13 07:51:59;;;;;;;0.63;0.63;;;1.30;99.90;;;;;;5074331;28;20434;-84
2023/02/13 07:54:26;;;;;;;1.17;0.63;;;1.30;99.90;;;;;;5074041;28;20808;-84
2023/02/13 07:56:53;;;;;;;0.47;0.40;;;1.30;99.90;;;;;;5074036;28;20474;-85
2023/02/13 07:59:19;;;;;;;4.57;0.93;;;1.30;99.90;;;;;;5074682;28;20820;-84
2023/02/13 08:01:46;;;;;;;0.73;0.73;;;1.40;99.90;;;;;;5074446;28;20456;-85
2023/02/13 08:04:14;;;;;;;0.30;0.30;;;1.40;99.90;;;;;;5074197;28;20823;-85
2023/02/13 08:06:41;;;;;;;1.47;0.77;;;1.50;99.90;;;;;;5073931;28;20485;-85
2023/02/13 08:11:58;;;;;;;0.37;0.37;;;1.50;99.90;;;;;;5074659;28;20955;-85
2023/02/13 08:14:26;;;;;;;2.10;1.07;;;1.60;99.90;;;;;;5074507;28;20456;-85
2023/02/13 08:16:55;;;;;;;1.93;0.53;;;1.60;99.90;;;;;;5074995;28;20832;-85
2023/02/13 08:19:23;;;;;;;0.40;0.37;;;1.60;99.90;;;;;;5074587;28;20481;-85
2023/02/13 08:21:50;;;;;;;2.07;0.80;;;1.60;99.90;;;;;;5074105;28;20570;-85
2023/02/13 08:24:16;;;;;;;2.40;0.67;;;1.70;99.90;;;;;;5074353;28;20816;-86
2023/02/13 08:26:43;;;;;;;1.43;1.33;;;1.80;99.90;;;;;;5074095;28;21004;-85
2023/02/13 08:29:11;;;;;;;0.40;0.40;;;1.70;99.90;;;;;;5074195;28;20516;-85
2023/02/13 08:31:38;;;;;;;0.73;0.63;;;1.80;99.90;;;;;;5074442;28;20446;-84
2023/02/13 08:34:04;;;;;;;1.07;0.53;;;1.90;99.90;;;;;;5074245;28;20812;-85
2023/02/13 08:36:33;;;;;;;0.80;0.80;;;1.90;99.90;;;;;;5073063;28;20482;-84
2023/02/13 08:38:59;;;;;;;0.67;0.67;;;2.00;99.90;;;;;;5073169;28;20441;-83
2023/02/13 08:41:26;;;;;;;0.30;0.30;;;2.10;99.90;;;;;;5073099;28;20450;-83
2023/02/13 08:43:54;;;;;;;0.70;0.70;;;2.20;99.90;;;;;;5073665;28;20483;-84
2023/02/13 08:46:21;;;;;;;2.00;0.50;;;2.20;99.90;;;;;;5073108;28;20984;-83
2023/02/13 08:48:48;;;;;;;0.50;0.40;;;2.40;99.90;;;;;;5073261;28;20453;-84
2023/02/13 08:51:14;;;;;;;0.50;0.50;;;2.50;99.90;;;;;;5073021;28;20963;-84
2023/02/13 08:53:42;;;;;;;0.40;0.30;;;2.60;99.90;;;;;;5073227;28;20450;-84
2023/02/13 08:56:10;;;;;;;0.73;0.67;;;2.80;99.90;;;;;;5073287;28;20466;-84
2023/02/13 08:58:37;;;;;;;0.40;0.40;;;2.90;99.90;;;;;;5073179;28;20824;-84
2023/02/13 09:01:06;;;;;;;0.40;0.40;;;3.10;99.90;;;;;;5072958;28;20807;-84
2023/02/13 09:03:33;;;;;;;4.90;0.90;;;3.40;99.90;;;;;;5073146;28;20457;-84
2023/02/13 09:06:00;;;;;;;0.60;0.60;;;3.70;99.90;;;;;;5073051;28;20481;-84
2023/02/13 09:08:27;;;;;;;4.20;1.03;;;4.10;99.90;;;;;;5073270;28;20445;-84
2023/02/13 09:11:00;;;;;;;0.30;0.30;;;4.70;99.90;;;;;;5073658;28;20829;-84
2023/02/13 09:13:27;;;;;;;1.63;1.20;;;5.60;99.90;;;;;;5073670;28;20434;-84
2023/02/13 09:15:54;;;;;;;2.10;0.90;;;6.70;99.90;;;;;;5073171;28;20449;-83
2023/02/13 09:18:21;;;;;;;0.70;0.60;;;7.60;99.90;;;;;;5073135;28;20430;-83
2023/02/13 09:20:47;;;;;;;0.57;0.57;;;8.40;99.90;;;;;;5073236;28;20808;-84
2023/02/13 09:23:14;;;;;;;1.63;0.80;;;9.20;99.90;;;;;;5073817;28;20453;-84
2023/02/13 09:25:41;;;;;;;1.43;0.53;;;10.10;99.90;;;;;;5073403;28;20536;-83
2023/02/13 09:28:09;;;;;;;0.80;0.80;;;10.70;99.90;;;;;;5073496;28;20503;-84
2023/02/13 09:30:36;;;;;;;1.53;0.60;;;11.30;99.90;;;;;;5075963;28;20452;-84
2023/02/13 09:33:03;;;;;;;1.30;1.20;;;12.70;99.90;;;;;;5076745;28;20449;-84
2023/02/13 09:35:29;;;;;;;1.40;1.00;;;14.20;99.90;;;;;;5076922;28;20496;-83
2023/02/13 09:37:56;;;;;;;1.47;1.17;;;15.70;99.90;;;;;;5076700;28;20458;-83
2023/02/13 09:40:28;;;;;;;1.77;0.80;;;16.50;96.70;;;;;;5077161;28;20449;-84
2023/02/13 09:43:04;;;;;;;3.40;1.70;;;17.40;92.30;;;;;;5076809;28;20429;-84
2023/02/13 09:45:34;;;;;;;1.70;1.00;;;17.90;89.90;;;;;;5076567;28;20433;-83
2023/02/13 09:48:01;;;;;;;3.33;1.83;;;18.50;85.90;;;;;;5076459;28;20489;-84
2023/02/13 09:50:32;;;;;;;1.60;1.23;;;18.60;82.10;;;;;;5076628;28;20445;-84
2023/02/13 09:52:59;;;;;;;4.27;1.80;;;18.60;77.80;;;;;;5076714;28;20442;-84
2023/02/13 09:55:36;;;;;;;4.33;1.60;;;18.40;78.60;;;;;;5076599;28;20446;-84
2023/02/13 09:58:10;;;;;;;2.10;1.90;;;18.50;77.70;;;;;;5076569;28;20501;-84
2023/02/13 10:00:41;;;;;;;2.67;1.70;;;18.50;77.80;;;;;;5076665;28;20495;-83
2023/02/13 10:03:27;;;;;;;3.50;1.93;;;18.30;75.40;;;;;;5076680;28;20430;-83
2023/02/13 10:06:05;;;;;;;2.20;1.63;;;18.00;74.30;;;;;;5075892;28;20449;-84
2023/02/13 10:08:57;;;;;;;4.73;2.00;;;17.50;74.70;;;;;;5076784;28;20504;-83
2023/02/13 10:12:00;;;;;;;3.83;2.30;;;17.00;76.50;;;;;;5066353;28;20450;-83
2023/02/13 10:14:32;;;;;;;3.40;1.63;;;16.40;77.60;;;;;;5073927;28;20986;-83
2023/02/13 10:17:03;;;;;;;5.23;2.03;;;15.90;76.50;;;;;;5076078;28;20829;-83
2023/02/13 10:19:36;;;;;;;4.03;2.20;;;15.70;78.30;;;;;;5076146;28;20916;-83
2023/02/13 10:22:07;;;;;;;5.10;1.53;;;16.10;77.30;;;;;;5076622;28;20453;-83
2023/02/13 10:24:37;;;;;;;2.67;1.33;;;16.70;75.60;;;;;;5076436;28;20430;-83
2023/02/13 10:27:17;;;;;;;6.20;1.80;;;17.20;72.50;;;;;;5076481;28;20491;-83
2023/02/13 10:30:08;;;;;;;3.17;1.30;;;18.00;72.50;;;;;;5075523;28;20434;-83
2023/02/13 10:32:47;;;;;;;3.90;1.80;;;18.50;69.30;;;;;;5075596;28;20952;-83
2023/02/13 10:35:22;;;;;;;2.20;1.53;;;19.00;69.00;;;;;;5075499;28;20437;-83
2023/02/13 10:37:51;;;;;;;1.80;1.70;;;19.20;69.30;;;;;;5075532;28;20534;-83
2023/02/13 10:40:19;;;;;;;5.63;1.77;;;18.80;68.90;;;;;;5074241;28;20452;-83
2023/02/13 10:42:53;;;;;;;7.27;2.30;;;18.60;69.30;;;;;;5075273;28;20454;-83
2023/02/13 10:45:40;;;;;;;3.60;2.27;;;18.50;69.30;;;;;;5075317;28;20804;-83
2023/02/13 10:48:22;;;;;;;4.80;2.00;;;18.20;68.00;;;;;;5074984;28;20481;-83
2023/02/13 10:51:00;;;;;;;2.17;1.97;;;17.70;68.50;;;;;;5075071;28;20921;-83
2023/02/13 10:53:40;;;;;;;2.13;1.43;;;17.10;70.20;;;;;;5075391;28;20440;-83
2023/02/13 10:56:20;;;;;;;3.83;1.40;;;16.60;71.20;;;;;;5075202;28;20485;-82
2023/02/13 10:59:12;;;;;;;1.90;1.43;;;16.00;72.50;;;;;;5075458;28;20450;-84
2023/02/13 11:01:47;;;;;;;6.23;2.90;;;15.40;74.30;;;;;;5075002;28;20429;-83
2023/02/13 11:04:18;;;;;;;3.27;1.80;;;14.80;76.70;;;;;;5074700;28;20429;-82
2023/02/13 11:06:52;;;;;;;4.03;1.67;;;14.50;77.30;;;;;;5074669;28;20497;-82
2023/02/13 11:09:19;;;;;;;1.90;1.70;;;13.60;80.30;;;;;;5074750;28;20434;-85
2023/02/13 11:11:46;;;;;;;3.27;2.03;;;12.90;82.60;;;;;;5074609;28;20450;-82
2023/02/13 11:14:18;;;;;;;3.53;1.40;;;12.20;83.50;;;;;;5074756;28;20815;-83
2023/02/13 11:16:52;;;;;;;3.47;1.60;;;11.80;86.90;;;;;;5076291;28;20468;-83
2023/02/13 11:19:25;;;;;;;1.40;1.10;;;11.30;88.50;;;;;;5075280;28;20435;-83
2023/02/13 11:21:56;;;;;;;2.47;1.60;;;10.90;90.20;;;;;;5074965;28;20901;-83
2023/02/13 11:24:25;;;;;;;3.67;1.13;;;10.60;91.30;;;;;;5074405;28;20928;-82
2023/02/13 11:26:57;;;;;;;1.27;1.13;;;10.30;92.30;;;;;;5074437;28;20523;-82
2023/02/13 11:29:27;;;;;;;3.73;1.40;;;10.10;93.40;;;;;;5074618;28;20429;-81
2023/02/13 11:32:27;;;;;;;1.37;1.10;;;9.80;95.20;;;;;;5074438;28;20456;-82
2023/02/13 11:34:55;;;;;;;1.80;1.03;;;9.60;95.70;;;;;;5012461;28;20440;-82
2023/02/13 11:37:25;;;;;;;2.93;1.50;;;9.50;96.30;;;;;;5011992;28;20485;-82
2023/02/13 11:39:54;;;;;;;2.10;0.70;;;9.50;97.60;;;;;;5041262;28;20448;-83
2023/02/13 11:42:27;;;;;;;0.90;0.80;;;9.40;98.10;;;;;;5073809;28;21064;-82
2023/02/13 11:44:58;;;;;;;2.57;1.00;;;9.20;98.30;;;;;;5074254;28;20426;-83
2023/02/13 11:47:38;;;;;;;1.47;1.03;;;9.20;98.70;;;;;;5074041;28;20500;-82
2023/02/13 11:50:19;;;;;;;3.70;1.57;;;9.10;99.70;;;;;;5074042;28;20441;-82
2023/02/13 11:52:55;;;;;;;2.33;1.10;;;9.10;99.90;;;;;;5073656;28;20839;-82
2023/02/13 11:55:29;;;;;;;1.80;1.23;;;9.20;99.90;;;;;;5073479;28;20936;-82
2023/02/13 11:57:58;;;;;;;2.30;2.20;;;9.20;99.90;;;;;;5074118;28;20840;-83
2023/02/13 12:00:36;;;;;;;4.20;1.63;;;9.20;99.90;;;;;;5073941;28;20452;-82
2023/02/13 12:03:03;;;;;;;2.80;1.83;;;9.20;99.90;;;;;;5073894;28;20446;-82
2023/02/13 12:05:31;;;;;;;1.37;0.63;;;9.20;99.90;;;;;;5073956;28;20441;-83
2023/02/13 12:08:01;;;;;;;6.00;4.27;;;9.10;99.90;;;;;;5073399;28;20992;-83
2023/02/13 12:10:29;;;;;;;2.00;0.97;;;9.10;99.90;;;;;;5073536;28;20426;-83
2023/02/13 12:12:57;;;;;;;2.00;1.03;;;9.10;99.90;;;;;;5073454;28;20464;-78
2023/02/13 12:15:27;;;;;;;2.63;1.07;;;9.10;99.90;;;;;;5073450;28;20456;-80
2023/02/13 12:18:04;;;;;;;0.93;0.77;;;9.10;99.90;;;;;;5073396;28;20462;-80
2023/02/13 12:20:41;;;;;;;3.33;1.77;;;8.90;99.90;;;;;;5073448;28;20441;-80
2023/02/13 12:23:16;;;;;;;0.80;0.60;;;8.90;99.90;;;;;;5073169;28;20881;-80
2023/02/13 12:25:57;;;;;;;1.03;0.97;;;8.80;99.90;;;;;;5074159;28;20430;-80
2023/02/13 12:28:32;;;;;;;4.70;1.00;;;8.70;99.90;;;;;;5073307;28;20544;-81
2023/02/13 12:31:27;;;;;;;2.00;1.00;;;8.60;99.90;;;;;;5073086;28;20417;-80
2023/02/13 12:34:18;;;;;;;1.47;1.10;;;8.40;99.90;;;;;;5073554;28;20537;-80
2023/02/13 12:37:00;;;;;;;1.47;0.87;;;8.40;99.90;;;;;;5072719;28;20492;-81
2023/02/13 12:39:33;;;;;;;6.53;0.90;;;8.50;99.90;;;;;;5073273;28;20453;-81
2023/02/13 12:42:21;;;;;;;2.40;2.20;;;8.50;99.90;;;;;;5073213;28;20433;-81
2023/02/13 12:45:08;;;;;;;1.63;0.70;;;8.50;99.90;;;;;;5072967;28;20437;-80
2023/02/13 12:47:42;;;;;;;2.00;0.67;;;8.40;99.90;;;;;;5072808;28;20488;-81
2023/02/13 12:50:27;;;;;;;1.43;0.63;;;8.30;99.90;;;;;;5073117;28;20426;-81
2023/02/13 12:53:23;;;;;;;1.63;0.60;;;8.30;99.90;;;;;;5072915;28;20913;-84
2023/02/13 12:56:25;;;;;;;2.17;1.47;;;8.20;99.90;;;;;;5073094;28;20406;-84
2023/02/13 12:59:04;;;;;;;0.60;0.60;;;8.30;99.90;;;;;;5073215;28;20421;-83
2023/02/13 13:01:58;;;;;;;1.80;1.10;;;8.20;99.90;;;;;;5073250;28;20429;-84
2023/02/13 13:04:39;;;;;;;1.30;0.63;;;8.10;99.90;;;;;;5074843;28;20422;-84
2023/02/13 13:07:28;;;;;;;0.80;0.80;;;8.10;99.90;;;;;;5076636;28;20504;-84
2023/02/13 13:10:19;;;;;;;1.47;0.90;;;8.00;99.90;;;;;;5076803;28;20909;-84
2023/02/13 13:12:53;;;;;;;1.43;0.50;;;8.00;99.90;;;;;;5076900;28;20441;-84
2023/02/13 13:15:31;;;;;;;2.00;0.80;;;8.00;99.90;;;;;;5076637;28;20897;-84
2023/02/13 13:18:07;;;;;;;1.33;0.80;;;7.90;99.90;;;;;;5076813;28;20484;-84
2023/02/13 13:20:59;;;;;;;3.90;0.70;;;8.00;99.90;;;;;;5076768;28;20441;-85
2023/02/13 13:23:31;;;;;;;0.90;0.50;;;8.10;99.90;;;;;;5073221;28;20487;-84
2023/02/13 13:26:09;;;;;;;1.17;0.70;;;8.00;99.90;;;;;;5076752;28;20413;-84
2023/02/13 13:28:39;;;;;;;0.87;0.73;;;8.00;99.90;;;;;;5076664;28;20473;-84
2023/02/13 13:31:07;;;;;;;1.60;1.13;;;8.00;99.90;;;;;;5076395;28;20438;-85
2023/02/13 13:33:35;;;;;;;1.80;0.80;;;8.10;99.90;;;;;;5076530;28;20449;-84
2023/02/13 13:36:08;;;;;;;1.43;0.60;;;8.20;99.90;;;;;;5076413;28;20481;-85
2023/02/13 13:38:50;;;;;;;0.90;0.70;;;8.30;99.90;;;;;;5076434;28;20425;-85
2023/02/13 13:41:26;;;;;;;0.63;0.63;;;8.20;99.90;;;;;;5076271;28;20433;-84
2023/02/13 13:44:09;;;;;;;1.10;0.60;;;8.20;99.90;;;;;;5076227;28;20438;-84
2023/02/13 13:46:47;;;;;;;0.70;0.40;;;8.20;99.90;;;;;;5076263;28;20972;-84
2023/02/13 13:49:27;;;;;;;2.00;0.93;;;8.20;99.90;;;;;;5076343;28;20469;-82
2023/02/13 13:51:53;;;;;;;0.70;0.70;;;8.30;99.90;;;;;;5076317;28;20436;-84
2023/02/13 13:54:34;;;;;;;1.53;1.03;;;8.30;99.90;;;;;;5076316;28;20449;-84
2023/02/13 13:57:10;;;;;;;4.67;1.73;;;8.10;99.90;;;;;;5075854;28;21041;-84
2023/02/13 14:00:03;;;;;;;2.10;0.70;;;8.10;99.90;;;;;;5075743;28;20778;-84